createdAt,value
2017-08-23T00:00:11.053Z,12.20
2017-08-23T00:02:39.382Z,12.20
2017-08-23T00:05:09.665Z,12.20
2017-08-23T00:07:37.927Z,12.20
2017-08-23T00:10:06.225Z,12.10
2017-08-23T00:12:34.544Z,12.10
2017-08-23T00:15:03.365Z,12.10
2017-08-23T00:17:32.065Z,12.10
2017-08-23T00:20:01.412Z,12.00
2017-08-23T00:22:29.729Z,12.00
2017-08-23T00:24:58.037Z,11.90
2017-08-23T00:27:26.395Z,11.90
2017-08-23T00:29:54.972Z,11.90
2017-08-23T00:32:23.265Z,11.90
2017-08-23T00:34:51.598Z,11.80
2017-08-23T00:37:19.879Z,11.80
2017-08-23T00:39:48.163Z,11.70
2017-08-23T00:42:16.829Z,11.70
2017-08-23T00:44:45.162Z,11.70
2017-08-23T00:47:14.392Z,11.70
2017-08-23T00:49:42.684Z,11.70
2017-08-23T00:52:11.762Z,11.70
2017-08-23T00:54:40.357Z,11.60
2017-08-23T00:57:08.691Z,11.60
2017-08-23T00:59:36.998Z,11.60
2017-08-23T01:02:06.015Z,11.60
2017-08-23T01:04:34.362Z,11.50
2017-08-23T01:07:03.892Z,11.50
2017-08-23T01:09:33.589Z,11.50
2017-08-23T01:12:01.925Z,11.50
2017-08-23T01:14:30.290Z,11.50
2017-08-23T01:16:58.911Z,11.50
2017-08-23T01:19:28.298Z,11.40
2017-08-23T01:21:56.610Z,11.40
2017-08-23T01:24:25.080Z,11.40
2017-08-23T01:26:53.392Z,11.40
2017-08-23T01:29:21.678Z,11.40
2017-08-23T01:31:50.315Z,11.40
2017-08-23T01:34:18.635Z,11.40
2017-08-23T01:36:46.962Z,11.40
2017-08-23T01:39:15.260Z,11.40
2017-08-23T01:41:43.571Z,11.40
2017-08-23T01:44:12.195Z,11.30
2017-08-23T01:46:40.786Z,11.30
2017-08-23T01:49:09.056Z,11.30
2017-08-23T01:51:37.417Z,11.30
2017-08-23T01:54:06.418Z,11.30
2017-08-23T01:56:35.311Z,11.30
2017-08-23T01:59:03.641Z,11.30
2017-08-23T02:01:33.082Z,11.20
2017-08-23T02:04:02.163Z,11.20
2017-08-23T02:06:30.450Z,11.20
2017-08-23T02:09:06.414Z,11.10
2017-08-23T02:11:40.915Z,11.10
2017-08-23T02:14:09.223Z,11.10
2017-08-23T02:16:37.517Z,11.10
2017-08-23T02:19:05.870Z,11.00
2017-08-23T02:21:35.539Z,11.00
2017-08-23T02:24:03.927Z,11.00
2017-08-23T02:26:32.230Z,11.00
2017-08-23T02:29:00.508Z,11.00
2017-08-23T02:31:29.216Z,11.00
2017-08-23T02:33:57.484Z,11.10
2017-08-23T02:36:25.773Z,11.10
2017-08-23T02:38:54.395Z,11.10
2017-08-23T02:41:23.195Z,11.20
2017-08-23T02:43:51.564Z,11.20
2017-08-23T02:46:20.610Z,11.30
2017-08-23T02:48:49.356Z,11.30
2017-08-23T02:51:18.019Z,11.30
2017-08-23T02:53:46.325Z,11.40
2017-08-23T02:56:14.599Z,11.40
2017-08-23T02:58:43.044Z,11.40
2017-08-23T03:01:12.146Z,11.40
2017-08-23T03:03:41.162Z,11.40
2017-08-23T03:06:09.439Z,11.40
2017-08-23T03:08:38.417Z,11.50
2017-08-23T03:11:06.712Z,11.50
2017-08-23T03:13:35.728Z,11.50
2017-08-23T03:16:04.638Z,11.50
2017-08-23T03:18:33.803Z,11.50
2017-08-23T03:21:02.571Z,11.50
2017-08-23T03:23:30.880Z,11.50
2017-08-23T03:25:59.152Z,11.60
2017-08-23T03:28:27.765Z,11.60
2017-08-23T03:30:56.174Z,11.60
2017-08-23T03:33:24.478Z,11.50
2017-08-23T03:35:52.814Z,11.50
2017-08-23T03:38:21.071Z,11.50
2017-08-23T03:40:49.690Z,11.50
2017-08-23T03:43:17.979Z,11.50
2017-08-23T03:48:23.746Z,11.50
2017-08-23T03:50:52.123Z,11.40
2017-08-23T03:53:20.720Z,11.40
2017-08-23T03:55:49.850Z,11.50
2017-08-23T03:58:18.133Z,11.50
2017-08-23T04:00:46.708Z,11.50
2017-08-23T04:03:15.064Z,11.60
2017-08-23T04:05:43.361Z,11.60
2017-08-23T04:08:11.928Z,11.60
2017-08-23T04:10:40.949Z,11.60
2017-08-23T04:13:09.984Z,11.60
2017-08-23T04:15:38.818Z,11.60
2017-08-23T04:18:07.515Z,11.70
2017-08-23T04:20:35.795Z,11.70
2017-08-23T04:23:04.097Z,11.80
2017-08-23T04:25:32.379Z,11.80
2017-08-23T04:28:01.089Z,11.80
2017-08-23T04:30:29.352Z,11.90
2017-08-23T04:32:57.620Z,12.10
2017-08-23T04:35:25.970Z,12.10
2017-08-23T04:37:54.297Z,12.10
2017-08-23T04:40:22.970Z,12.20
2017-08-23T04:42:52.203Z,12.30
2017-08-23T04:45:20.492Z,12.50
2017-08-23T04:47:48.774Z,12.50
2017-08-23T04:50:17.888Z,12.60
2017-08-23T04:52:46.464Z,12.60
2017-08-23T04:55:15.379Z,12.60
2017-08-23T04:57:43.740Z,12.70
2017-08-23T05:00:12.067Z,12.70
2017-08-23T05:02:40.375Z,12.70
2017-08-23T05:05:08.946Z,12.80
2017-08-23T05:07:38.053Z,13.00
2017-08-23T05:10:06.379Z,12.90
2017-08-23T05:12:34.630Z,13.00
2017-08-23T05:15:03.416Z,13.10
2017-08-23T05:17:31.985Z,13.20
2017-08-23T05:20:00.397Z,13.20
2017-08-23T05:22:28.698Z,13.20
2017-08-23T05:24:57.378Z,13.10
2017-08-23T05:27:25.657Z,13.10
2017-08-23T05:29:53.947Z,13.20
2017-08-23T05:32:22.905Z,13.30
2017-08-23T05:34:51.297Z,13.40
2017-08-23T05:37:19.572Z,13.50
2017-08-23T05:39:48.588Z,13.60
2017-08-23T05:42:16.870Z,13.70
2017-08-23T05:44:45.194Z,13.70
2017-08-23T05:47:14.577Z,13.90
2017-08-23T05:49:42.868Z,13.80
2017-08-23T05:52:11.206Z,13.80
2017-08-23T05:54:39.809Z,13.90
2017-08-23T05:57:09.572Z,13.90
2017-08-23T05:59:38.099Z,14.00
2017-08-23T06:02:07.507Z,14.10
2017-08-23T06:04:35.818Z,14.20
2017-08-23T06:07:05.438Z,14.20
2017-08-23T06:09:34.092Z,14.30
2017-08-23T06:12:02.415Z,14.40
2017-08-23T06:14:31.283Z,14.50
2017-08-23T06:17:00.257Z,14.60
2017-08-23T06:19:28.535Z,14.60
2017-08-23T06:21:56.867Z,14.70
2017-08-23T06:24:26.208Z,14.80
2017-08-23T06:26:54.545Z,14.80
2017-08-23T06:29:22.814Z,14.90
2017-08-23T06:31:51.428Z,14.90
2017-08-23T06:34:19.771Z,15.10
2017-08-23T06:36:48.462Z,15.20
2017-08-23T06:39:16.831Z,15.40
2017-08-23T06:41:45.161Z,15.50
2017-08-23T06:44:13.759Z,15.60
2017-08-23T06:46:42.029Z,15.90
2017-08-23T06:49:10.330Z,16.10
2017-08-23T06:51:39.745Z,16.60
2017-08-23T06:54:08.054Z,16.60
2017-08-23T06:56:36.641Z,16.70
2017-08-23T06:59:04.954Z,16.60
2017-08-23T07:01:33.226Z,16.70
2017-08-23T07:04:01.607Z,16.90
2017-08-23T07:06:30.570Z,17.00
2017-08-23T07:09:01.189Z,17.10
2017-08-23T07:11:30.122Z,17.30
2017-08-23T07:13:58.444Z,17.30
2017-08-23T07:16:27.094Z,17.50
2017-08-23T07:18:55.406Z,17.60
2017-08-23T07:21:24.324Z,17.70
2017-08-23T07:23:52.651Z,17.70
2017-08-23T07:26:20.951Z,17.70
2017-08-23T07:28:49.610Z,17.60
2017-08-23T07:31:17.906Z,17.70
2017-08-23T07:33:46.316Z,17.90
2017-08-23T07:36:14.992Z,17.90
2017-08-23T07:38:43.277Z,17.90
2017-08-23T07:41:12.051Z,17.80
2017-08-23T07:43:40.353Z,17.90
2017-08-23T07:46:08.660Z,18.10
2017-08-23T07:48:37.260Z,18.10
2017-08-23T07:51:05.544Z,18.20
2017-08-23T07:53:34.496Z,18.30
2017-08-23T07:56:02.830Z,18.30
2017-08-23T07:58:31.192Z,18.40
2017-08-23T08:00:59.859Z,18.40
2017-08-23T08:03:28.575Z,18.30
2017-08-23T08:05:56.883Z,18.30
2017-08-23T08:08:25.327Z,18.20
2017-08-23T08:10:54.100Z,18.10
2017-08-23T08:13:22.680Z,17.80
2017-08-23T08:15:51.075Z,17.80
2017-08-23T08:18:19.349Z,17.80
2017-08-23T08:20:47.962Z,17.90
2017-08-23T08:23:16.262Z,17.90
2017-08-23T08:25:44.550Z,17.90
2017-08-23T08:28:13.150Z,18.00
2017-08-23T08:30:42.051Z,18.10
2017-08-23T08:33:10.880Z,18.30
2017-08-23T08:35:40.672Z,18.30
2017-08-23T08:38:09.013Z,18.40
2017-08-23T08:40:37.373Z,18.40
2017-08-23T08:43:05.696Z,18.40
2017-08-23T08:45:34.340Z,18.50
2017-08-23T08:48:02.703Z,18.60
2017-08-23T08:50:31.034Z,18.60
2017-08-23T08:52:59.372Z,18.60
2017-08-23T08:55:27.656Z,18.80
2017-08-23T08:57:56.206Z,18.90
2017-08-23T09:00:24.547Z,19.00
2017-08-23T09:02:52.857Z,19.10
2017-08-23T09:05:21.188Z,19.20
2017-08-23T09:07:49.502Z,19.30
2017-08-23T09:10:18.069Z,19.30
2017-08-23T09:12:46.428Z,19.30
2017-08-23T09:15:14.748Z,19.30
2017-08-23T09:17:43.356Z,19.30
2017-08-23T09:20:11.650Z,19.40
2017-08-23T09:22:40.302Z,19.60
2017-08-23T09:25:08.584Z,19.80
2017-08-23T09:27:36.885Z,19.80
2017-08-23T09:30:05.961Z,19.80
2017-08-23T09:32:34.248Z,19.80
2017-08-23T09:35:02.820Z,20.00
2017-08-23T09:37:31.125Z,20.10
2017-08-23T09:40:00.495Z,20.20
2017-08-23T09:42:30.593Z,20.70
2017-08-23T09:45:00.809Z,21.10
2017-08-23T09:47:29.804Z,21.10
2017-08-23T09:49:58.130Z,21.60
2017-08-23T09:52:26.443Z,22.00
2017-08-23T09:54:54.825Z,22.40
2017-08-23T09:57:23.112Z,22.70
2017-08-23T09:59:51.798Z,22.70
2017-08-23T10:02:21.346Z,22.80
2017-08-23T10:07:19.930Z,23.30
2017-08-23T10:09:48.628Z,23.50
2017-08-23T10:12:17.282Z,23.60
2017-08-23T10:14:46.348Z,23.70
2017-08-23T10:17:14.657Z,24.30
2017-08-23T10:19:42.962Z,24.50
2017-08-23T10:22:11.627Z,24.40
2017-08-23T10:24:40.580Z,24.00
2017-08-23T10:27:08.867Z,23.80
2017-08-23T10:29:37.191Z,23.60
2017-08-23T10:32:05.788Z,24.10
2017-08-23T10:34:34.080Z,24.60
2017-08-23T10:37:02.393Z,25.40
2017-08-23T10:39:31.814Z,25.80
2017-08-23T10:42:00.841Z,26.50
2017-08-23T10:44:29.415Z,26.40
2017-08-23T10:46:57.751Z,26.30
2017-08-23T10:49:26.060Z,25.60
2017-08-23T10:51:54.494Z,25.30
2017-08-23T10:54:22.844Z,25.10
2017-08-23T10:56:51.424Z,25.10
2017-08-23T10:59:19.707Z,25.80
2017-08-23T11:01:47.996Z,26.90
2017-08-23T11:04:16.289Z,28.30
2017-08-23T11:06:44.623Z,28.60
2017-08-23T11:09:13.286Z,29.20
2017-08-23T11:11:41.627Z,29.10
2017-08-23T11:14:09.941Z,29.50
2017-08-23T11:16:38.276Z,30.90
2017-08-23T11:19:06.877Z,32.10
2017-08-23T11:21:36.607Z,34.50
2017-08-23T11:24:06.042Z,36.40
2017-08-23T11:26:35.179Z,36.30
2017-08-23T11:29:03.469Z,38.30
2017-08-23T11:31:31.757Z,38.90
2017-08-23T11:34:01.233Z,38.40
2017-08-23T11:36:29.615Z,36.80
2017-08-23T11:38:57.908Z,36.80
2017-08-23T11:41:27.106Z,37.20
2017-08-23T11:43:55.464Z,37.20
2017-08-23T11:46:24.007Z,36.70
2017-08-23T11:48:53.431Z,32.80
2017-08-23T11:51:21.739Z,32.70
2017-08-23T11:53:50.129Z,32.10
2017-08-23T11:56:18.546Z,31.60
2017-08-23T11:58:47.205Z,30.60
2017-08-23T12:01:15.887Z,29.50
2017-08-23T12:03:44.164Z,28.80
2017-08-23T12:06:12.764Z,30.30
2017-08-23T12:08:41.027Z,32.40
2017-08-23T12:11:10.036Z,32.50
2017-08-23T12:13:38.695Z,30.70
2017-08-23T12:16:07.844Z,30.60
2017-08-23T12:18:36.170Z,30.50
2017-08-23T12:21:04.491Z,31.20
2017-08-23T12:23:32.772Z,32.70
2017-08-23T12:26:01.394Z,34.50
2017-08-23T12:28:29.698Z,36.40
2017-08-23T12:30:59.396Z,38.50
2017-08-23T12:33:29.176Z,40.10
2017-08-23T12:35:58.647Z,41.90
2017-08-23T12:38:28.360Z,41.80
2017-08-23T12:40:57.706Z,43.30
2017-08-23T12:43:26.036Z,43.10
2017-08-23T12:45:54.666Z,44.20
2017-08-23T12:48:23.080Z,43.10
2017-08-23T12:50:52.782Z,44.00
2017-08-23T12:53:22.307Z,43.60
2017-08-23T12:55:50.678Z,43.60
2017-08-23T12:58:19.907Z,44.00
2017-08-23T13:00:48.229Z,44.30
2017-08-23T13:03:16.546Z,43.90
2017-08-23T13:05:46.036Z,43.60
2017-08-23T13:08:14.431Z,43.90
2017-08-23T13:10:42.742Z,43.20
2017-08-23T13:13:11.391Z,44.50
2017-08-23T13:15:40.849Z,43.00
2017-08-23T13:18:09.148Z,42.90
2017-08-23T13:20:38.511Z,40.00
2017-08-23T13:23:08.332Z,35.10
2017-08-23T13:25:37.718Z,35.00
2017-08-23T13:28:06.009Z,33.20
2017-08-23T13:30:34.324Z,32.10
2017-08-23T13:33:04.618Z,30.40
2017-08-23T13:35:32.964Z,30.30
2017-08-23T13:38:02.666Z,32.60
2017-08-23T13:43:00.629Z,36.30
2017-08-23T13:45:29.243Z,37.50
2017-08-23T13:47:57.530Z,39.20
2017-08-23T13:50:26.139Z,41.40
2017-08-23T13:57:54.008Z,46.20
2017-08-23T14:02:51.913Z,47.40
2017-08-23T14:05:20.350Z,45.80
2017-08-23T14:07:48.838Z,44.00
2017-08-23T14:10:17.441Z,41.80
2017-08-23T14:12:47.583Z,41.60
2017-08-23T14:15:16.619Z,41.60
2017-08-23T14:17:44.960Z,42.30
2017-08-23T14:20:13.259Z,43.50
2017-08-23T14:22:42.218Z,44.70
2017-08-23T14:25:10.536Z,46.00
2017-08-23T14:27:38.847Z,45.80
2017-08-23T14:32:36.763Z,47.10
2017-08-23T14:35:06.181Z,45.50
2017-08-23T14:37:34.715Z,45.40
2017-08-23T14:40:04.680Z,45.00
2017-08-23T14:42:33.061Z,45.00
2017-08-23T14:45:02.613Z,44.60
2017-08-23T14:47:31.261Z,44.80
2017-08-23T14:49:59.651Z,43.90
2017-08-23T14:52:27.935Z,43.30
2017-08-23T14:54:56.319Z,43.50
2017-08-23T14:57:25.115Z,43.30
2017-08-23T14:59:53.821Z,42.70
2017-08-23T15:02:22.930Z,43.00
2017-08-23T15:04:51.686Z,42.30
2017-08-23T15:07:20.801Z,43.50
2017-08-23T15:09:50.542Z,43.40
2017-08-23T15:12:19.817Z,43.30
2017-08-23T15:14:48.586Z,43.60
2017-08-23T15:17:16.924Z,43.80
2017-08-23T15:19:45.292Z,43.40
2017-08-23T15:22:13.630Z,42.80
2017-08-23T15:24:42.236Z,43.30
2017-08-23T15:27:13.480Z,42.70
2017-08-23T15:29:42.609Z,42.70
2017-08-23T15:32:11.595Z,42.50
2017-08-23T15:34:40.296Z,42.10
2017-08-23T15:37:08.587Z,41.90
2017-08-23T15:39:37.203Z,41.70
2017-08-23T15:42:05.818Z,41.70
2017-08-23T15:44:34.117Z,41.30
2017-08-23T15:47:03.320Z,40.80
2017-08-23T15:49:33.517Z,41.40
2017-08-23T15:52:02.188Z,41.40
2017-08-23T15:54:33.628Z,41.00
2017-08-23T15:57:01.935Z,40.60
2017-08-23T15:59:30.240Z,40.20
2017-08-23T16:01:58.533Z,39.40
2017-08-23T16:04:27.537Z,37.80
2017-08-23T16:06:56.233Z,36.20
2017-08-23T16:09:24.515Z,34.80
2017-08-23T16:11:53.981Z,32.50
2017-08-23T16:14:23.129Z,32.40
2017-08-23T16:16:52.455Z,31.20
2017-08-23T16:19:24.802Z,29.10
2017-08-23T16:21:53.076Z,29.10
2017-08-23T16:24:23.182Z,28.30
2017-08-23T16:26:51.806Z,27.40
2017-08-23T16:29:20.104Z,27.00
2017-08-23T16:31:49.557Z,26.70
2017-08-23T16:34:18.584Z,26.40
2017-08-23T16:36:47.384Z,26.30
2017-08-23T16:39:15.662Z,26.00
2017-08-23T16:41:45.001Z,25.90
2017-08-23T16:44:13.645Z,25.60
2017-08-23T16:46:43.556Z,25.40
2017-08-23T16:49:12.754Z,25.40
2017-08-23T16:51:41.610Z,25.30
2017-08-23T16:54:09.925Z,25.20
2017-08-23T16:56:38.498Z,25.00
2017-08-23T16:59:07.748Z,24.80
2017-08-23T17:01:36.026Z,24.70
2017-08-23T17:04:04.320Z,24.60
2017-08-23T17:06:32.597Z,24.50
2017-08-23T17:09:01.188Z,24.20
2017-08-23T17:11:29.476Z,24.20
2017-08-23T17:13:58.519Z,23.90
2017-08-23T17:16:28.799Z,23.90
2017-08-23T17:18:58.883Z,23.50
2017-08-23T17:21:28.280Z,23.40
2017-08-23T17:23:56.860Z,23.30
2017-08-23T17:26:26.706Z,23.30
2017-08-23T17:28:55.280Z,23.20
2017-08-23T17:31:23.575Z,23.10
2017-08-23T17:33:51.847Z,23.10
2017-08-23T17:36:20.169Z,23.00
2017-08-23T17:38:49.298Z,22.70
2017-08-23T17:41:17.962Z,22.70
2017-08-23T17:43:47.395Z,22.70
2017-08-23T17:46:15.678Z,22.60
2017-08-23T17:48:44.593Z,22.40
2017-08-23T17:51:13.258Z,22.30
2017-08-23T17:53:41.889Z,22.10
2017-08-23T17:56:10.471Z,22.00
2017-08-23T17:58:38.764Z,21.90
2017-08-23T18:01:07.047Z,21.80
2017-08-23T18:03:35.417Z,21.70
2017-08-23T18:06:04.027Z,21.60
2017-08-23T18:08:32.298Z,21.50
2017-08-23T18:11:00.587Z,21.40
2017-08-23T18:13:29.263Z,21.40
2017-08-23T18:15:57.545Z,21.40
2017-08-23T18:18:25.918Z,21.30
2017-08-23T18:20:54.521Z,21.20
2017-08-23T18:23:22.880Z,21.20
2017-08-23T18:25:51.449Z,21.10
2017-08-23T18:28:21.109Z,21.00
2017-08-23T18:30:49.389Z,20.90
2017-08-23T18:33:17.849Z,20.70
2017-08-23T18:35:46.123Z,20.60
2017-08-23T18:38:16.268Z,20.50
2017-08-23T18:40:44.544Z,20.40
2017-08-23T18:43:12.955Z,20.20
2017-08-23T18:45:41.257Z,20.20
2017-08-23T18:48:09.633Z,20.10
2017-08-23T18:50:38.755Z,20.10
2017-08-23T18:53:07.889Z,20.10
2017-08-23T18:55:36.191Z,20.00
2017-08-23T18:58:04.570Z,19.90
2017-08-23T19:00:32.864Z,19.90
2017-08-23T19:03:01.538Z,19.80
2017-08-23T19:05:29.844Z,19.70
2017-08-23T19:07:58.217Z,19.60
2017-08-23T19:10:26.489Z,19.50
2017-08-23T19:12:56.011Z,19.40
2017-08-23T19:15:24.870Z,19.30
2017-08-23T19:17:53.964Z,19.20
2017-08-23T19:20:22.545Z,19.00
2017-08-23T19:22:50.839Z,18.90
2017-08-23T19:25:19.131Z,18.80
2017-08-23T19:27:48.553Z,18.70
2017-08-23T19:30:17.653Z,18.60
2017-08-23T19:32:45.940Z,18.50
2017-08-23T19:35:14.625Z,18.40
2017-08-23T19:37:42.901Z,18.30
2017-08-23T19:40:11.560Z,18.20
2017-08-23T19:42:40.235Z,18.10
2017-08-23T19:45:09.920Z,18.00
2017-08-23T19:47:38.611Z,17.90
2017-08-23T19:50:07.554Z,17.80
2017-08-23T19:52:35.836Z,17.70
2017-08-23T19:55:04.241Z,17.70
2017-08-23T19:57:32.531Z,17.60
2017-08-23T20:00:01.100Z,17.60
2017-08-23T20:02:29.391Z,17.60
2017-08-23T20:04:57.672Z,17.50
2017-08-23T20:07:25.996Z,17.40
2017-08-23T20:09:54.301Z,17.30
2017-08-23T20:12:22.957Z,17.30
2017-08-23T20:14:51.308Z,17.20
2017-08-23T20:17:20.096Z,17.10
2017-08-23T20:19:48.396Z,17.00
2017-08-23T20:22:16.673Z,16.90
2017-08-23T20:24:45.639Z,16.80
2017-08-23T20:27:14.739Z,16.80
2017-08-23T20:29:43.521Z,16.70
2017-08-23T20:32:12.204Z,16.70
2017-08-23T20:34:40.472Z,16.60
2017-08-23T20:37:09.861Z,16.50
2017-08-23T20:39:38.243Z,16.50
2017-08-23T20:42:07.573Z,16.50
2017-08-23T20:44:35.875Z,16.50
2017-08-23T20:47:04.911Z,16.50
2017-08-23T20:49:33.544Z,16.40
2017-08-23T20:52:01.870Z,16.40
2017-08-23T20:54:30.794Z,16.30
2017-08-23T20:56:59.143Z,16.30
2017-08-23T20:59:27.424Z,16.30
2017-08-23T21:01:56.487Z,16.20
2017-08-23T21:04:24.777Z,16.20
2017-08-23T21:06:53.812Z,16.00
2017-08-23T21:09:22.147Z,16.00
2017-08-23T21:11:50.427Z,16.00
2017-08-23T21:14:19.827Z,15.90
2017-08-23T21:16:48.197Z,15.90
2017-08-23T21:19:17.436Z,15.80
2017-08-23T21:21:45.698Z,15.70
2017-08-23T21:24:13.997Z,15.50
2017-08-23T21:26:42.677Z,15.40
2017-08-23T21:29:10.982Z,15.40
2017-08-23T21:31:39.285Z,15.30
2017-08-23T21:34:07.694Z,15.20
2017-08-23T21:36:36.012Z,15.20
2017-08-23T21:39:04.573Z,15.10
2017-08-23T21:41:33.604Z,15.10
2017-08-23T21:44:01.911Z,15.10
2017-08-23T21:46:30.697Z,15.00
2017-08-23T21:48:59.013Z,15.00
2017-08-23T21:51:27.597Z,14.90
2017-08-23T21:53:56.536Z,14.90
2017-08-23T21:56:25.476Z,14.80
2017-08-23T21:58:54.496Z,14.80
2017-08-23T22:01:22.849Z,14.70
2017-08-23T22:03:51.408Z,14.60
2017-08-23T22:06:19.693Z,14.50
2017-08-23T22:08:47.996Z,14.50
2017-08-23T22:11:16.430Z,14.50
2017-08-23T22:13:44.742Z,14.50
2017-08-23T22:16:14.405Z,14.50
2017-08-23T22:18:42.772Z,14.60
2017-08-23T22:21:12.024Z,14.60
2017-08-23T22:23:40.602Z,14.50
2017-08-23T22:26:09.963Z,14.60
2017-08-23T22:28:38.367Z,14.50
2017-08-23T22:31:08.088Z,14.50
2017-08-23T22:33:36.389Z,14.50
2017-08-23T22:36:04.797Z,14.50
2017-08-23T22:38:33.556Z,14.50
2017-08-23T22:41:02.450Z,14.50
2017-08-23T22:43:31.420Z,14.50
2017-08-23T22:45:59.707Z,14.50
2017-08-23T22:48:28.239Z,14.40
2017-08-23T22:50:57.336Z,14.30
2017-08-23T22:53:26.649Z,14.30
2017-08-23T22:55:55.270Z,14.20
2017-08-23T22:58:24.265Z,14.20
2017-08-23T23:00:52.567Z,14.20
2017-08-23T23:03:22.489Z,14.10
2017-08-23T23:05:51.569Z,14.00
2017-08-23T23:08:20.200Z,14.00
2017-08-23T23:10:50.530Z,13.90
2017-08-23T23:13:18.855Z,13.80
2017-08-23T23:15:47.148Z,13.80
2017-08-23T23:18:15.572Z,13.70
2017-08-23T23:20:44.243Z,13.70
2017-08-23T23:23:13.056Z,13.60
2017-08-23T23:25:41.339Z,13.60
2017-08-23T23:28:10.134Z,13.70
2017-08-23T23:30:38.654Z,13.60
2017-08-23T23:33:07.694Z,13.60
2017-08-23T23:35:36.105Z,13.60
2017-08-23T23:38:04.872Z,13.60
2017-08-23T23:40:33.204Z,13.50
2017-08-23T23:43:03.394Z,13.40
2017-08-23T23:45:31.978Z,13.40
2017-08-23T23:48:01.860Z,13.30
2017-08-23T23:50:30.142Z,13.20
2017-08-23T23:52:58.649Z,13.20
2017-08-23T23:55:26.966Z,13.10
2017-08-23T23:57:56.371Z,13.10
